Time;durP1;ratioP1;P1;durP2;ratioP2;P2;SDS_P1;SDS_P2;PMS_P1;PMS_P2;Temp;Humidity;BMP_temperature;BMP_pressure;BME280_temperature;BME280_humidity;BME280_pressure;Samples;Min_cycle;Max_cycle;Signal;HPM_P1;HPM_P2
2022/06/10 00:00:47;;;;;;;15.80;2.70;;;;;;;;;;5074280;28;20021;-72
2022/06/10 00:03:14;;;;;;;17.35;3.85;;;;;;;;;;5077471;28;20082;-72
2022/06/10 00:05:41;;;;;;;16.52;3.35;;;;;;;;;;5069685;28;20052;-72
2022/06/10 00:08:14;;;;;;;10.68;2.83;;;;;;;;;;5081433;28;20120;-72
2022/06/10 00:10:40;;;;;;;12.20;2.65;;;;;;;;;;5083758;28;20399;-72
2022/06/10 00:13:07;;;;;;;18.70;2.60;;;;;;;;;;5069517;28;20033;-72
2022/06/10 00:15:34;;;;;;;14.93;3.08;;;;;;;;;;5056990;28;20089;-72
2022/06/10 00:18:01;;;;;;;11.50;2.33;;;;;;;;;;5071476;28;20036;-72
2022/06/10 00:20:28;;;;;;;20.15;2.85;;;;;;;;;;5070483;28;20029;-72
2022/06/10 00:22:54;;;;;;;19.92;2.78;;;;;;;;;;5072509;28;20028;-72
2022/06/10 00:25:21;;;;;;;11.48;2.47;;;;;;;;;;5062795;28;20431;-72
2022/06/10 00:27:48;;;;;;;11.07;3.10;;;;;;;;;;5075189;28;20060;-72
2022/06/10 00:30:15;;;;;;;7.82;2.33;;;;;;;;;;5077712;28;20040;-72
2022/06/10 00:32:41;;;;;;;9.77;2.40;;;;;;;;;;5079039;28;20043;-72
2022/06/10 00:35:07;;;;;;;14.75;2.63;;;;;;;;;;5070587;28;20450;-72
2022/06/10 00:37:33;;;;;;;10.93;2.30;;;;;;;;;;5075320;28;20045;-72
2022/06/10 00:39:59;;;;;;;8.73;1.95;;;;;;;;;;5063931;28;20029;-72
2022/06/10 00:42:25;;;;;;;14.02;2.70;;;;;;;;;;5089053;28;20036;-72
2022/06/10 00:44:53;;;;;;;9.27;2.40;;;;;;;;;;5071655;28;20041;-72
2022/06/10 00:47:29;;;;;;;7.93;2.38;;;;;;;;;;5076543;28;20111;-72
2022/06/10 00:50:14;;;;;;;8.02;2.25;;;;;;;;;;5071837;28;20024;-72
2022/06/10 00:52:42;;;;;;;7.18;1.98;;;;;;;;;;5076210;28;20483;-72
2022/06/10 00:55:08;;;;;;;9.77;2.08;;;;;;;;;;5052902;28;20098;-72
2022/06/10 00:57:38;;;;;;;13.20;2.65;;;;;;;;;;5073867;28;20383;-72
2022/06/10 01:00:09;;;;;;;12.48;2.63;;;;;;;;;;5075277;28;20016;-72
2022/06/10 01:02:35;;;;;;;13.48;2.60;;;;;;;;;;5064136;28;20031;-72
2022/06/10 01:05:03;;;;;;;12.70;4.00;;;;;;;;;;5071122;28;20033;-72
2022/06/10 01:07:35;;;;;;;10.77;2.45;;;;;;;;;;5058778;28;20046;-72
2022/06/10 01:10:02;;;;;;;7.55;2.20;;;;;;;;;;5073676;28;20114;-72
2022/06/10 01:12:31;;;;;;;10.10;2.63;;;;;;;;;;5070131;28;20021;-72
2022/06/10 01:15:11;;;;;;;18.10;2.70;;;;;;;;;;5052035;28;20555;-72
2022/06/10 01:17:43;;;;;;;11.77;2.38;;;;;;;;;;5053674;28;20028;-72
2022/06/10 01:20:09;;;;;;;7.82;2.40;;;;;;;;;;5072404;28;20021;-72
2022/06/10 01:22:47;;;;;;;8.10;2.63;;;;;;;;;;5073488;28;20073;-72
2022/06/10 01:25:13;;;;;;;9.10;2.70;;;;;;;;;;5071168;28;20029;-72
2022/06/10 01:27:53;;;;;;;12.00;2.97;;;;;;;;;;5071797;28;20375;-72
2022/06/10 01:30:38;;;;;;;9.02;2.53;;;;;;;;;;5075323;28;20036;-72
2022/06/10 01:33:04;;;;;;;9.13;3.03;;;;;;;;;;5056849;28;20039;-72
2022/06/10 01:35:39;;;;;;;7.72;2.83;;;;;;;;;;5092003;28;20570;-72
2022/06/10 01:38:14;;;;;;;13.15;3.47;;;;;;;;;;5085092;28;20056;-72
2022/06/10 01:40:47;;;;;;;8.50;2.60;;;;;;;;;;5064275;28;20482;-72
2022/06/10 01:43:16;;;;;;;9.98;2.50;;;;;;;;;;5051358;28;20036;-72
2022/06/10 01:45:48;;;;;;;12.90;3.00;;;;;;;;;;5072080;28;20067;-72
2022/06/10 01:48:19;;;;;;;7.90;2.53;;;;;;;;;;5060426;28;20028;-72
2022/06/10 01:50:48;;;;;;;11.23;2.70;;;;;;;;;;5088721;28;20054;-72
2022/06/10 01:53:14;;;;;;;9.52;2.53;;;;;;;;;;5067049;28;20127;-72
2022/06/10 01:55:45;;;;;;;12.77;3.05;;;;;;;;;;5080671;28;20380;-72
2022/06/10 01:58:13;;;;;;;13.18;2.88;;;;;;;;;;5072526;28;20039;-72
2022/06/10 02:00:42;;;;;;;7.75;2.80;;;;;;;;;;5067047;28;20159;-72
2022/06/10 02:03:11;;;;;;;14.68;3.03;;;;;;;;;;5068580;28;21195;-72
2022/06/10 02:05:40;;;;;;;7.80;2.78;;;;;;;;;;5051754;28;20095;-72
2022/06/10 02:08:11;;;;;;;11.02;2.45;;;;;;;;;;5052576;28;20074;-72
2022/06/10 02:10:44;;;;;;;12.57;2.87;;;;;;;;;;5058822;28;20078;-72
2022/06/10 02:13:14;;;;;;;9.90;2.70;;;;;;;;;;5055405;28;20473;-72
2022/06/10 02:15:52;;;;;;;13.10;2.75;;;;;;;;;;5076847;28;20040;-72
2022/06/10 02:18:29;;;;;;;11.18;2.72;;;;;;;;;;5053953;28;20032;-72
2022/06/10 02:20:58;;;;;;;12.77;2.95;;;;;;;;;;5062801;28;20060;-72
2022/06/10 02:23:29;;;;;;;13.07;2.88;;;;;;;;;;5073981;28;20032;-72
2022/06/10 02:25:57;;;;;;;13.77;2.90;;;;;;;;;;5072047;28;20035;-72
2022/06/10 02:28:33;;;;;;;18.48;3.05;;;;;;;;;;5059346;28;20363;-72
2022/06/10 02:31:08;;;;;;;16.63;3.58;;;;;;;;;;5082010;28;20502;-72
2022/06/10 02:33:35;;;;;;;13.80;2.58;;;;;;;;;;5069660;28;20037;-72
2022/06/10 02:36:19;;;;;;;10.27;3.03;;;;;;;;;;5089923;28;20103;-72
2022/06/10 02:38:48;;;;;;;16.48;2.97;;;;;;;;;;5068276;28;20029;-71
2022/06/10 02:41:14;;;;;;;10.43;2.80;;;;;;;;;;5078927;28;20384;-72
2022/06/10 02:44:06;;;;;;;19.10;4.00;;;;;;;;;;5085837;28;20028;-72
2022/06/10 02:46:51;;;;;;;13.68;2.60;;;;;;;;;;5070771;28;20028;-72
2022/06/10 02:49:19;;;;;;;12.60;2.95;;;;;;;;;;5061098;28;20483;-72
2022/06/10 02:51:46;;;;;;;13.23;3.22;;;;;;;;;;5071889;28;20024;-72
2022/06/10 02:54:15;;;;;;;15.27;3.05;;;;;;;;;;5066438;28;20037;-72
2022/06/10 02:56:41;;;;;;;14.52;2.72;;;;;;;;;;5089389;28;20368;-71
2022/06/10 03:02:07;;;;;;;10.40;2.40;;;;;;;;;;5080653;28;20090;-72
2022/06/10 03:04:58;;;;;;;10.77;2.65;;;;;;;;;;5070732;28;20661;-72
2022/06/10 03:07:33;;;;;;;15.32;2.72;;;;;;;;;;5073704;28;20150;-73
2022/06/10 03:10:03;;;;;;;12.68;3.13;;;;;;;;;;5067181;28;20012;-72
2022/06/10 03:12:48;;;;;;;18.40;4.55;;;;;;;;;;5077754;28;20032;-72
2022/06/10 03:15:32;;;;;;;12.48;2.83;;;;;;;;;;5070536;28;20040;-72
2022/06/10 03:18:14;;;;;;;7.45;2.13;;;;;;;;;;5054844;28;20104;-72
2022/06/10 03:20:43;;;;;;;12.80;3.00;;;;;;;;;;5071149;28;20040;-72
2022/06/10 03:23:12;;;;;;;16.58;2.42;;;;;;;;;;5074141;28;20472;-72
2022/06/10 03:25:40;;;;;;;10.18;2.80;;;;;;;;;;5076786;28;20035;-72
2022/06/10 03:28:09;;;;;;;14.13;2.60;;;;;;;;;;5067751;28;20041;-72
2022/06/10 03:30:37;;;;;;;16.25;3.25;;;;;;;;;;5076899;28;20380;-72
2022/06/10 03:33:12;;;;;;;10.43;2.85;;;;;;;;;;5061782;28;20029;-72
2022/06/10 03:35:41;;;;;;;9.07;2.60;;;;;;;;;;5085914;28;20118;-72
2022/06/10 03:38:07;;;;;;;13.63;2.85;;;;;;;;;;5086461;28;20031;-71
2022/06/10 03:40:34;;;;;;;10.50;2.63;;;;;;;;;;5076463;28;20040;-72
2022/06/10 03:43:02;;;;;;;11.52;3.08;;;;;;;;;;5072831;28;20020;-72
2022/06/10 03:45:30;;;;;;;17.98;3.40;;;;;;;;;;5067252;28;20065;-72
2022/06/10 03:47:56;;;;;;;10.57;2.97;;;;;;;;;;5066116;28;20419;-74
2022/06/10 03:50:25;;;;;;;12.50;3.33;;;;;;;;;;5071446;28;20368;-75
2022/06/10 03:52:51;;;;;;;11.30;2.60;;;;;;;;;;5083017;28;20055;-75
2022/06/10 03:55:19;;;;;;;17.10;3.55;;;;;;;;;;5069537;28;20033;-74
2022/06/10 03:57:46;;;;;;;10.52;3.45;;;;;;;;;;5073985;28;20039;-74
2022/06/10 04:00:16;;;;;;;12.50;2.72;;;;;;;;;;5068554;28;20066;-74
2022/06/10 04:02:43;;;;;;;15.55;3.90;;;;;;;;;;5068103;28;20035;-73
2022/06/10 04:05:10;;;;;;;12.32;3.53;;;;;;;;;;5071565;28;20082;-73
2022/06/10 04:07:37;;;;;;;16.75;2.70;;;;;;;;;;5075496;28;20029;-74
2022/06/10 04:10:03;;;;;;;15.98;3.50;;;;;;;;;;5066571;28;20033;-74
2022/06/10 04:12:29;;;;;;;12.88;2.53;;;;;;;;;;5072036;28;20032;-73
2022/06/10 04:14:55;;;;;;;9.25;2.50;;;;;;;;;;5075468;28;20056;-74
2022/06/10 04:17:21;;;;;;;14.07;3.45;;;;;;;;;;5081890;28;20043;-75
2022/06/10 04:19:47;;;;;;;15.65;3.13;;;;;;;;;;5061834;28;20047;-73
2022/06/10 04:22:14;;;;;;;28.35;4.53;;;;;;;;;;5078761;28;20028;-73
2022/06/10 04:24:40;;;;;;;12.02;3.00;;;;;;;;;;5084932;28;20456;-73
2022/06/10 04:27:06;;;;;;;17.25;2.85;;;;;;;;;;5070345;28;20111;-73
2022/06/10 04:29:32;;;;;;;13.20;2.80;;;;;;;;;;5081502;28;20020;-73
2022/06/10 04:31:58;;;;;;;15.75;3.42;;;;;;;;;;5053760;28;20036;-73
2022/06/10 04:34:24;;;;;;;16.58;3.10;;;;;;;;;;5073375;28;20040;-73
2022/06/10 04:36:50;;;;;;;15.57;2.70;;;;;;;;;;5074557;28;21266;-72
2022/06/10 04:39:16;;;;;;;16.90;2.55;;;;;;;;;;5066657;28;20487;-76
2022/06/10 04:41:42;;;;;;;105.50;62.30;;;;;;;;;;5056002;28;20032;-81
2022/06/10 04:44:09;;;;;;;22.33;4.85;;;;;;;;;;5066344;28;20063;-77
2022/06/10 04:46:37;;;;;;;18.92;3.65;;;;;;;;;;5063262;28;20074;-71
2022/06/10 04:49:03;;;;;;;19.50;2.47;;;;;;;;;;5073807;28;20025;-71
2022/06/10 04:51:29;;;;;;;12.32;2.58;;;;;;;;;;5065927;28;20380;-74
2022/06/10 04:53:55;;;;;;;13.75;3.13;;;;;;;;;;5076566;28;20480;-73
2022/06/10 04:56:21;;;;;;;10.82;2.78;;;;;;;;;;5057681;28;20024;-72
2022/06/10 04:58:47;;;;;;;12.45;2.90;;;;;;;;;;5068333;28;20055;-70
2022/06/10 05:01:13;;;;;;;16.77;4.13;;;;;;;;;;5070400;28;20024;-73
2022/06/10 05:03:39;;;;;;;17.30;2.72;;;;;;;;;;5075899;28;20035;-73
2022/06/10 05:06:05;;;;;;;14.07;2.42;;;;;;;;;;5057691;28;20028;-74
2022/06/10 05:08:31;;;;;;;13.32;2.70;;;;;;;;;;5078393;28;20028;-73
2022/06/10 05:10:57;;;;;;;15.48;3.47;;;;;;;;;;5070133;28;20081;-72
2022/06/10 05:13:23;;;;;;;13.88;2.88;;;;;;;;;;5076563;28;20021;-73
2022/06/10 05:15:50;;;;;;;22.73;3.13;;;;;;;;;;5072678;28;20061;-73
2022/06/10 05:18:18;;;;;;;14.77;4.00;;;;;;;;;;5047845;28;20040;-74
2022/06/10 05:20:44;;;;;;;30.20;12.13;;;;;;;;;;5065300;28;20036;-71
2022/06/10 05:23:12;;;;;;;17.42;6.60;;;;;;;;;;5076452;28;20078;-72
2022/06/10 05:25:39;;;;;;;18.70;3.85;;;;;;;;;;5079077;28;20035;-73
2022/06/10 05:28:05;;;;;;;17.40;3.60;;;;;;;;;;5067333;28;20040;-73
2022/06/10 05:30:32;;;;;;;20.08;3.05;;;;;;;;;;5061418;28;20024;-73
2022/06/10 05:32:59;;;;;;;8.38;2.40;;;;;;;;;;5064426;28;20025;-72
2022/06/10 05:35:26;;;;;;;23.17;4.60;;;;;;;;;;5078364;28;20049;-73
2022/06/10 05:37:52;;;;;;;16.27;3.17;;;;;;;;;;5071757;28;20028;-72
2022/06/10 05:40:19;;;;;;;11.25;2.92;;;;;;;;;;5078686;28;20604;-72
2022/06/10 05:42:45;;;;;;;8.77;2.88;;;;;;;;;;5068360;28;20384;-73
2022/06/10 05:45:13;;;;;;;10.00;2.53;;;;;;;;;;5071917;28;20036;-73
2022/06/10 05:47:40;;;;;;;18.58;2.88;;;;;;;;;;5066717;28;20085;-73
2022/06/10 05:50:08;;;;;;;11.15;3.55;;;;;;;;;;5079259;28;20028;-72
2022/06/10 05:52:35;;;;;;;16.85;3.28;;;;;;;;;;5084232;28;20029;-72
2022/06/10 05:55:02;;;;;;;15.43;3.13;;;;;;;;;;5066063;28;20029;-72
2022/06/10 05:57:29;;;;;;;15.27;3.45;;;;;;;;;;5059905;28;22855;-72
2022/06/10 05:59:55;;;;;;;21.55;3.92;;;;;;;;;;5057841;28;20048;-72
2022/06/10 06:02:22;;;;;;;14.98;4.30;;;;;;;;;;5067440;28;20055;-73
2022/06/10 06:04:48;;;;;;;18.70;3.40;;;;;;;;;;5068511;28;20035;-72
2022/06/10 06:07:16;;;;;;;12.77;3.17;;;;;;;;;;5070435;28;20025;-73
2022/06/10 06:09:43;;;;;;;14.65;3.72;;;;;;;;;;5066531;28;20056;-73
2022/06/10 06:12:10;;;;;;;16.88;3.83;;;;;;;;;;5085468;28;20028;-73
2022/06/10 06:14:37;;;;;;;14.25;3.78;;;;;;;;;;5084396;28;20058;-73
2022/06/10 06:17:04;;;;;;;17.85;3.78;;;;;;;;;;5071050;28;20037;-73
2022/06/10 06:19:32;;;;;;;20.05;3.90;;;;;;;;;;5067536;28;20027;-73
2022/06/10 06:21:58;;;;;;;27.33;5.82;;;;;;;;;;5070950;28;20047;-72
2022/06/10 06:24:25;;;;;;;17.42;3.58;;;;;;;;;;5059401;28;20152;-73
2022/06/10 06:26:51;;;;;;;13.10;3.33;;;;;;;;;;5071116;28;20473;-73
2022/06/10 06:29:17;;;;;;;18.17;3.92;;;;;;;;;;5053481;28;20098;-72
2022/06/10 06:31:43;;;;;;;11.82;4.10;;;;;;;;;;5064404;28;20029;-72
2022/06/10 06:34:10;;;;;;;13.95;3.45;;;;;;;;;;5051907;28;20028;-72
2022/06/10 06:36:45;;;;;;;21.02;3.80;;;;;;;;;;5070794;28;20028;-73
2022/06/10 06:39:12;;;;;;;16.58;3.30;;;;;;;;;;5068098;28;20032;-73
2022/06/10 06:41:38;;;;;;;14.27;4.05;;;;;;;;;;5072080;28;20089;-73
2022/06/10 06:44:05;;;;;;;15.68;3.63;;;;;;;;;;5070416;28;20033;-72
2022/06/10 06:46:32;;;;;;;15.52;3.38;;;;;;;;;;5069871;28;20110;-73
2022/06/10 06:48:58;;;;;;;52.88;6.75;;;;;;;;;;5061842;28;20143;-73
2022/06/10 06:51:24;;;;;;;14.35;3.65;;;;;;;;;;5085313;28;20036;-73
2022/06/10 06:53:50;;;;;;;13.45;3.63;;;;;;;;;;5077446;28;20476;-73
2022/06/10 06:56:16;;;;;;;17.58;3.33;;;;;;;;;;5069248;28;21838;-72
2022/06/10 06:58:44;;;;;;;13.02;3.53;;;;;;;;;;5079717;28;20044;-72
2022/06/10 07:01:10;;;;;;;21.95;4.38;;;;;;;;;;5084392;28;20024;-73
2022/06/10 07:03:36;;;;;;;12.93;3.75;;;;;;;;;;5093789;28;20032;-73
2022/06/10 07:06:02;;;;;;;21.48;5.65;;;;;;;;;;5079519;28;20036;-73
2022/06/10 07:08:31;;;;;;;13.68;4.35;;;;;;;;;;5079711;28;20107;-73
2022/06/10 07:11:00;;;;;;;15.85;4.63;;;;;;;;;;5069328;28;20120;-72
2022/06/10 07:13:26;;;;;;;12.60;3.67;;;;;;;;;;5048966;28;20142;-72
2022/06/10 07:15:52;;;;;;;12.88;4.47;;;;;;;;;;5067652;28;20055;-75
2022/06/10 07:18:19;;;;;;;14.93;4.20;;;;;;;;;;5070098;28;20361;-76
2022/06/10 07:20:45;;;;;;;13.38;4.00;;;;;;;;;;5072490;28;20391;-76
2022/06/10 07:23:11;;;;;;;13.88;3.70;;;;;;;;;;5069828;28;20499;-73
2022/06/10 07:25:37;;;;;;;15.00;4.75;;;;;;;;;;5062662;28;20044;-73
2022/06/10 07:28:04;;;;;;;13.23;6.28;;;;;;;;;;5050222;28;20029;-74
2022/06/10 07:30:32;;;;;;;12.38;3.70;;;;;;;;;;5064957;28;20052;-74
2022/06/10 07:32:58;;;;;;;15.88;4.45;;;;;;;;;;5063500;28;20033;-73
2022/06/10 07:35:25;;;;;;;10.82;3.35;;;;;;;;;;5071631;28;20029;-73
2022/06/10 07:37:52;;;;;;;23.55;4.63;;;;;;;;;;5087466;28;20031;-73
2022/06/10 07:43:10;;;;;;;15.50;4.10;;;;;;;;;;5088346;28;20056;-73
2022/06/10 07:45:36;;;;;;;14.13;4.85;;;;;;;;;;5068620;28;20116;-73
2022/06/10 07:48:02;;;;;;;17.15;4.90;;;;;;;;;;5077702;28;20099;-73
2022/06/10 07:50:29;;;;;;;14.35;4.68;;;;;;;;;;5049681;28;20050;-73
2022/06/10 07:52:56;;;;;;;13.93;4.57;;;;;;;;;;5065360;28;20028;-73
2022/06/10 07:55:22;;;;;;;11.55;4.70;;;;;;;;;;5085645;28;20029;-71
2022/06/10 07:57:48;;;;;;;11.05;4.03;;;;;;;;;;5074452;28;20028;-75
2022/06/10 08:00:15;;;;;;;29.48;14.75;;;;;;;;;;5063045;28;20074;-71
2022/06/10 08:02:41;;;;;;;22.35;7.25;;;;;;;;;;5061679;28;20039;-73
2022/06/10 08:05:08;;;;;;;16.85;4.45;;;;;;;;;;5065053;28;20354;-72
2022/06/10 08:07:37;;;;;;;16.38;4.28;;;;;;;;;;5063733;28;20031;-71
2022/06/10 08:10:04;;;;;;;14.45;3.50;;;;;;;;;;5060350;28;20012;-72
2022/06/10 08:12:30;;;;;;;16.92;4.47;;;;;;;;;;5060709;28;20342;-72
2022/06/10 08:14:56;;;;;;;18.33;4.10;;;;;;;;;;5064828;28;20416;-71
2022/06/10 08:17:22;;;;;;;25.38;5.28;;;;;;;;;;5071100;28;20518;-71
2022/06/10 08:19:48;;;;;;;16.40;3.80;;;;;;;;;;5068166;28;20458;-72
2022/06/10 08:22:32;;;;;;;14.68;3.85;;;;;;;;;;5065759;28;20473;-71
2022/06/10 08:24:59;;;;;;;15.25;5.97;;;;;;;;;;5073777;28;20401;-74
2022/06/10 08:27:25;;;;;;;12.93;3.63;;;;;;;;;;5067993;28;20028;-74
2022/06/10 08:29:51;;;;;;;17.83;6.18;;;;;;;;;;5054912;28;20028;-73
2022/06/10 08:32:17;;;;;;;15.63;3.55;;;;;;;;;;5055586;28;20033;-73
2022/06/10 08:34:43;;;;;;;10.75;3.45;;;;;;;;;;5070533;28;20044;-76
2022/06/10 08:37:10;;;;;;;17.23;3.70;;;;;;;;;;5072262;28;20033;-76
2022/06/10 08:39:36;;;;;;;13.95;3.45;;;;;;;;;;5075354;28;20076;-74
2022/06/10 08:42:06;;;;;;;10.23;3.47;;;;;;;;;;5071192;28;20033;-73
2022/06/10 08:44:38;;;;;;;22.08;4.53;;;;;;;;;;5053229;28;20033;-73
2022/06/10 08:47:04;;;;;;;15.60;3.80;;;;;;;;;;5074940;28;20124;-71
2022/06/10 08:49:39;;;;;;;15.80;4.22;;;;;;;;;;5079998;28;20024;-71
2022/06/10 08:52:05;;;;;;;8.73;3.60;;;;;;;;;;5064556;28;20032;-73
2022/06/10 08:54:35;;;;;;;15.77;5.60;;;;;;;;;;5069506;28;20028;-71
2022/06/10 08:57:05;;;;;;;18.05;3.83;;;;;;;;;;5060939;28;20028;-72
2022/06/10 08:59:36;;;;;;;11.45;3.42;;;;;;;;;;5076648;28;20055;-72
2022/06/10 09:02:12;;;;;;;12.73;3.58;;;;;;;;;;5064326;28;20083;-71
2022/06/10 09:04:44;;;;;;;13.38;4.03;;;;;;;;;;5061436;28;20039;-71
2022/06/10 09:07:19;;;;;;;41.40;24.42;;;;;;;;;;5079121;28;20659;-76
2022/06/10 09:09:45;;;;;;;13.88;5.30;;;;;;;;;;5071240;28;20025;-76
2022/06/10 09:12:18;;;;;;;15.07;4.10;;;;;;;;;;5073949;28;20123;-74
2022/06/10 09:14:44;;;;;;;15.63;4.25;;;;;;;;;;5074111;28;20060;-72
2022/06/10 09:17:19;;;;;;;16.15;4.55;;;;;;;;;;5054016;28;20040;-73
2022/06/10 09:19:55;;;;;;;15.93;4.43;;;;;;;;;;5074230;28;20391;-74
2022/06/10 09:22:21;;;;;;;13.52;3.85;;;;;;;;;;5072858;28;20016;-73
2022/06/10 09:24:53;;;;;;;15.07;3.75;;;;;;;;;;5065384;28;20090;-73
2022/06/10 09:27:31;;;;;;;21.63;5.07;;;;;;;;;;5071319;28;20032;-72
2022/06/10 09:29:58;;;;;;;18.50;4.68;;;;;;;;;;5053033;28;20028;-72
2022/06/10 09:32:47;;;;;;;16.52;4.15;;;;;;;;;;5060469;28;20047;-73
2022/06/10 09:35:53;;;;;;;17.23;4.60;;;;;;;;;;5046619;28;20056;-73
2022/06/10 09:38:27;;;;;;;17.98;5.60;;;;;;;;;;5008447;28;20057;-72
2022/06/10 09:40:53;;;;;;;16.85;4.18;;;;;;;;;;5017056;28;20162;-73
2022/06/10 09:43:22;;;;;;;18.33;4.85;;;;;;;;;;5032720;28;20116;-73
2022/06/10 09:45:52;;;;;;;15.98;4.20;;;;;;;;;;5057224;28;20036;-74
2022/06/10 09:48:27;;;;;;;14.77;3.90;;;;;;;;;;5068724;28;20763;-74
2022/06/10 09:50:59;;;;;;;14.05;4.55;;;;;;;;;;5069049;28;20226;-73
2022/06/10 09:53:25;;;;;;;;;;;;;;;;;;5073598;28;20039;-77
2022/06/10 09:56:09;;;;;;;16.05;4.15;;;;;;;;;;5057835;28;19916;-76
2022/06/10 09:58:35;;;;;;;15.23;4.00;;;;;;;;;;5080894;28;20484;-77
2022/06/10 10:01:22;;;;;;;11.77;4.13;;;;;;;;;;5063058;28;20070;-76
2022/06/10 10:03:57;;;;;;;15.88;4.18;;;;;;;;;;5053708;28;20028;-76
2022/06/10 10:06:36;;;;;;;17.02;4.28;;;;;;;;;;5057837;28;20349;-76
2022/06/10 10:09:14;;;;;;;13.50;3.75;;;;;;;;;;5060986;28;20036;-76
2022/06/10 10:12:09;;;;;;;11.57;3.85;;;;;;;;;;5062901;28;20028;-73
2022/06/10 10:14:39;;;;;;;13.55;3.63;;;;;;;;;;5036509;28;20053;-79
2022/06/10 10:17:17;;;;;;;11.85;2.70;;;;;;;;;;5048056;28;20602;-73
2022/06/10 10:19:47;;;;;;;7.70;2.72;;;;;;;;;;5061991;28;20020;-73
2022/06/10 10:22:13;;;;;;;11.18;2.45;;;;;;;;;;5063768;28;20030;-77
2022/06/10 10:24:42;;;;;;;10.45;2.75;;;;;;;;;;5064551;28;20041;-75
2022/06/10 10:27:21;;;;;;;14.00;3.17;;;;;;;;;;5059907;28;20028;-74
2022/06/10 10:29:50;;;;;;;7.93;2.67;;;;;;;;;;5057173;28;20085;-74
2022/06/10 10:32:36;;;;;;;13.20;2.92;;;;;;;;;;5060204;28;20089;-74
2022/06/10 10:35:09;;;;;;;11.40;3.50;;;;;;;;;;5058235;28;20029;-74
2022/06/10 10:37:37;;;;;;;7.97;2.65;;;;;;;;;;5062388;28;20036;-74
2022/06/10 10:40:05;;;;;;;9.27;3.22;;;;;;;;;;5062073;28;20917;-75
2022/06/10 10:42:35;;;;;;;9.95;2.63;;;;;;;;;;5058136;28;20033;-73
2022/06/10 10:45:15;;;;;;;5.35;2.38;;;;;;;;;;5067129;28;20036;-74
2022/06/10 10:47:47;;;;;;;12.10;2.58;;;;;;;;;;5060793;28;20086;-74
2022/06/10 10:50:19;;;;;;;7.88;1.85;;;;;;;;;;5068223;28;20133;-75
2022/06/10 10:52:46;;;;;;;10.98;2.53;;;;;;;;;;5063309;28;20388;-75
2022/06/10 10:55:14;;;;;;;7.72;3.33;;;;;;;;;;5064667;28;20080;-74
2022/06/10 10:57:46;;;;;;;8.77;2.28;;;;;;;;;;5053159;28;20357;-76
2022/06/10 11:00:14;;;;;;;8.65;3.05;;;;;;;;;;5058663;28;20079;-76
2022/06/10 11:02:50;;;;;;;8.13;2.60;;;;;;;;;;5060858;28;20057;-76
2022/06/10 11:05:16;;;;;;;14.48;3.67;;;;;;;;;;5068662;28;20028;-76
2022/06/10 11:07:43;;;;;;;9.27;2.58;;;;;;;;;;5062066;28;20083;-76
2022/06/10 11:10:09;;;;;;;15.73;7.35;;;;;;;;;;5055997;28;20486;-79
2022/06/10 11:12:36;;;;;;;14.40;5.40;;;;;;;;;;5058171;28;20055;-79
2022/06/10 11:15:06;;;;;;;9.35;3.28;;;;;;;;;;5064709;28;20057;-81
2022/06/10 11:17:34;;;;;;;10.07;2.88;;;;;;;;;;5066307;28;20028;-78
2022/06/10 11:20:02;;;;;;;13.13;3.13;;;;;;;;;;5072432;28;20043;-78
2022/06/10 11:22:28;;;;;;;12.10;3.25;;;;;;;;;;5077283;28;20025;-78
2022/06/10 11:25:15;;;;;;;9.60;2.80;;;;;;;;;;5068928;28;20032;-78
2022/06/10 11:27:57;;;;;;;14.75;3.30;;;;;;;;;;5054324;28;20048;-78
2022/06/10 11:30:24;;;;;;;12.68;3.00;;;;;;;;;;5052473;28;20040;-75
2022/06/10 11:32:51;;;;;;;9.75;3.33;;;;;;;;;;5070843;28;20023;-75
2022/06/10 11:35:26;;;;;;;14.27;3.60;;;;;;;;;;5079280;28;20067;-75
2022/06/10 11:37:54;;;;;;;10.13;3.45;;;;;;;;;;5072220;28;20430;-75
2022/06/10 11:40:29;;;;;;;9.80;4.15;;;;;;;;;;5069652;28;20028;-75
2022/06/10 11:42:55;;;;;;;14.30;3.90;;;;;;;;;;5059273;28;20029;-75
2022/06/10 11:45:24;;;;;;;12.35;4.38;;;;;;;;;;5092383;28;20059;-76
2022/06/10 11:47:53;;;;;;;19.85;8.13;;;;;;;;;;5065532;28;20031;-78
2022/06/10 11:50:23;;;;;;;12.00;3.45;;;;;;;;;;5066419;28;20404;-79
2022/06/10 11:52:52;;;;;;;11.70;2.85;;;;;;;;;;5078000;28;20047;-79
2022/06/10 11:55:23;;;;;;;11.82;3.58;;;;;;;;;;5074772;28;20111;-74
2022/06/10 12:00:45;;;;;;;16.60;3.60;;;;;;;;;;5065047;28;20027;-74
2022/06/10 12:03:14;;;;;;;12.43;3.20;;;;;;;;;;5055933;28;20042;-74
2022/06/10 12:05:53;;;;;;;10.65;4.10;;;;;;;;;;5071449;28;20035;-74
2022/06/10 12:08:25;;;;;;;12.27;2.30;;;;;;;;;;5072296;28;20027;-74
2022/06/10 12:10:51;;;;;;;;;;;;;;;;;;5064632;28;20108;-74
2022/06/10 12:13:17;;;;;;;8.45;2.20;;;;;;;;;;5070340;28;20022;-74
2022/06/10 12:15:55;;;;;;;11.32;3.28;;;;;;;;;;5062332;28;20129;-75
2022/06/10 12:18:22;;;;;;;8.77;2.00;;;;;;;;;;5067457;28;20033;-74
2022/06/10 12:20:58;;;;;;;10.50;2.58;;;;;;;;;;5065061;28;20094;-75
2022/06/10 12:23:26;;;;;;;5.22;1.90;;;;;;;;;;5072025;28;20031;-75
2022/06/10 12:26:01;;;;;;;9.27;1.67;;;;;;;;;;5056081;28;20032;-75
2022/06/10 12:28:40;;;;;;;7.57;1.73;;;;;;;;;;5065302;28;20027;-75
2022/06/10 12:31:13;;;;;;;4.30;1.80;;;;;;;;;;5065728;28;20032;-74
2022/06/10 12:34:02;;;;;;;5.25;1.10;;;;;;;;;;5065119;28;20048;-74
2022/06/10 12:36:38;;;;;;;5.03;1.42;;;;;;;;;;5041516;28;20040;-76
2022/06/10 12:39:04;;;;;;;11.85;2.35;;;;;;;;;;5065896;28;20033;-75
2022/06/10 12:41:30;;;;;;;3.53;1.42;;;;;;;;;;5061142;28;20024;-74
2022/06/10 12:43:59;;;;;;;4.50;1.05;;;;;;;;;;5067756;28;20357;-74
2022/06/10 12:46:46;;;;;;;5.70;1.63;;;;;;;;;;5067684;28;20068;-74
2022/06/10 12:49:19;;;;;;;3.85;1.25;;;;;;;;;;5052955;28;20033;-75
2022/06/10 12:51:52;;;;;;;7.70;1.45;;;;;;;;;;5071822;28;20028;-74
2022/06/10 12:54:26;;;;;;;6.47;1.40;;;;;;;;;;5054317;28;20033;-74
2022/06/10 12:57:12;;;;;;;4.88;1.25;;;;;;;;;;5069899;28;20036;-74
2022/06/10 12:59:38;;;;;;;7.07;1.35;;;;;;;;;;5072542;28;20036;-74
2022/06/10 13:02:24;;;;;;;7.88;1.50;;;;;;;;;;5065669;28;20028;-74
2022/06/10 13:04:58;;;;;;;4.55;1.38;;;;;;;;;;5069028;28;20123;-74
2022/06/10 13:07:35;;;;;;;5.07;1.10;;;;;;;;;;5062222;28;20104;-74
2022/06/10 13:10:20;;;;;;;4.90;1.10;;;;;;;;;;5072566;28;20074;-75
2022/06/10 13:12:48;;;;;;;4.00;1.20;;;;;;;;;;5068412;28;20086;-74
2022/06/10 13:15:17;;;;;;;7.68;1.88;;;;;;;;;;5057402;28;20053;-74
2022/06/10 13:18:01;;;;;;;4.50;1.20;;;;;;;;;;5072192;28;20028;-74
2022/06/10 13:20:27;;;;;;;4.85;1.70;;;;;;;;;;5057854;28;20020;-73
2022/06/10 13:23:11;;;;;;;5.50;1.23;;;;;;;;;;5061309;28;20507;-74
2022/06/10 13:25:37;;;;;;;11.25;1.83;;;;;;;;;;5054732;28;20033;-75
2022/06/10 13:28:11;;;;;;;4.32;1.20;;;;;;;;;;5057215;28;20025;-74
2022/06/10 13:30:37;;;;;;;5.95;1.60;;;;;;;;;;5070712;28;20078;-74
2022/06/10 13:33:06;;;;;;;6.72;1.35;;;;;;;;;;5058958;28;20063;-83
2022/06/10 13:35:35;;;;;;;4.93;1.13;;;;;;;;;;5086302;28;20033;-75
2022/06/10 13:38:14;;;;;;;7.32;1.58;;;;;;;;;;5069721;28;20031;-76
2022/06/10 13:40:40;;;;;;;7.20;1.45;;;;;;;;;;5073984;28;20144;-76
2022/06/10 13:43:07;;;;;;;12.45;5.75;;;;;;;;;;5069311;28;20024;-76
2022/06/10 13:45:35;;;;;;;7.45;2.08;;;;;;;;;;5068985;28;20124;-77
2022/06/10 13:48:09;;;;;;;7.32;1.98;;;;;;;;;;5063105;28;20380;-78
2022/06/10 13:53:06;;;;;;;9.10;2.08;;;;;;;;;;5055490;28;20086;-76
2022/06/10 13:55:40;;;;;;;10.45;2.38;;;;;;;;;;5057101;28;20681;-76
2022/06/10 13:58:16;;;;;;;9.50;1.80;;;;;;;;;;5056885;28;20028;-76
2022/06/10 14:00:42;;;;;;;11.50;1.98;;;;;;;;;;5076881;28;20107;-76
2022/06/10 14:03:24;;;;;;;9.70;2.15;;;;;;;;;;5073937;28;20119;-76
2022/06/10 14:05:50;;;;;;;;;;;;;;;;;;5073404;28;20043;-76
2022/06/10 14:08:17;;;;;;;7.95;2.25;;;;;;;;;;5075578;28;19912;-76
2022/06/10 14:10:44;;;;;;;9.63;2.67;;;;;;;;;;5074697;28;20032;-76
2022/06/10 14:13:15;;;;;;;9.52;2.75;;;;;;;;;;5065731;28;20107;-76
2022/06/10 14:15:49;;;;;;;10.43;2.15;;;;;;;;;;5067603;28;20052;-76
2022/06/10 14:18:17;;;;;;;12.27;3.25;;;;;;;;;;5078890;28;20104;-77
2022/06/10 14:20:43;;;;;;;11.05;2.58;;;;;;;;;;5064748;28;20035;-75
2022/06/10 14:23:23;;;;;;;11.57;2.75;;;;;;;;;;5064447;28;20041;-75
2022/06/10 14:26:04;;;;;;;9.40;2.72;;;;;;;;;;5071492;28;20058;-76
2022/06/10 14:28:30;;;;;;;12.52;3.20;;;;;;;;;;5070017;28;20016;-76
2022/06/10 14:30:59;;;;;;;9.18;2.58;;;;;;;;;;5064856;28;20028;-76
2022/06/10 14:33:32;;;;;;;10.32;2.75;;;;;;;;;;5068954;28;20096;-76
2022/06/10 14:36:08;;;;;;;9.63;2.45;;;;;;;;;;5071503;28;20055;-76
2022/06/10 14:38:34;;;;;;;13.23;2.80;;;;;;;;;;5052843;28;20086;-76
2022/06/10 14:41:03;;;;;;;10.32;2.42;;;;;;;;;;5052609;28;20035;-76
2022/06/10 14:43:33;;;;;;;9.68;2.47;;;;;;;;;;5070519;28;20162;-76
2022/06/10 14:46:02;;;;;;;7.40;2.30;;;;;;;;;;5063605;28;20024;-76
2022/06/10 14:48:30;;;;;;;6.88;2.97;;;;;;;;;;5056515;28;20533;-76
2022/06/10 14:51:22;;;;;;;10.63;2.35;;;;;;;;;;5071524;28;20045;-76
2022/06/10 14:53:50;;;;;;;11.77;2.72;;;;;;;;;;5048096;28;20397;-76
2022/06/10 14:56:23;;;;;;;9.15;2.05;;;;;;;;;;5056190;28;20087;-76
2022/06/10 14:58:49;;;;;;;7.05;1.67;;;;;;;;;;5058169;28;20036;-76
2022/06/10 15:01:24;;;;;;;10.70;2.75;;;;;;;;;;5070310;28;20021;-76